createdAt,value
2017-09-28T00:00:48.043Z,1014.35
2017-09-28T00:01:48.232Z,1014.34
2017-09-28T00:02:48.017Z,1014.32
2017-09-28T00:03:48.007Z,1014.33
2017-09-28T00:04:47.989Z,1014.32
2017-09-28T00:05:47.977Z,1014.34
2017-09-28T00:06:47.963Z,1014.35
2017-09-28T00:07:47.949Z,1014.37
2017-09-28T00:08:47.935Z,1014.44
2017-09-28T00:09:47.923Z,1014.41
2017-09-28T00:10:47.912Z,1014.41
2017-09-28T00:11:47.895Z,1014.41
2017-09-28T00:12:47.882Z,1014.37
2017-09-28T00:13:47.895Z,1014.37
2017-09-28T00:14:47.857Z,1014.39
2017-09-28T00:15:47.839Z,1014.38
2017-09-28T00:16:47.826Z,1014.4
2017-09-28T00:17:47.817Z,1014.34
2017-09-28T00:18:47.800Z,1014.38
2017-09-28T00:19:47.786Z,1014.42
2017-09-28T00:20:47.770Z,1014.43
2017-09-28T00:21:47.756Z,1014.42
2017-09-28T00:22:47.744Z,1014.41
2017-09-28T00:23:47.732Z,1014.39
2017-09-28T00:24:47.714Z,1014.43
2017-09-28T00:25:47.702Z,1014.4
2017-09-28T00:26:47.689Z,1014.45
2017-09-28T00:27:47.674Z,1014.44
2017-09-28T00:28:47.663Z,1014.39
2017-09-28T00:29:47.646Z,1014.43
2017-09-28T00:30:47.632Z,1014.45
2017-09-28T00:31:47.617Z,1014.45
2017-09-28T00:32:47.610Z,1014.42
2017-09-28T00:33:47.596Z,1014.42
2017-09-28T00:34:47.578Z,1014.43
2017-09-28T00:35:47.562Z,1014.42
2017-09-28T00:36:47.550Z,1014.41
2017-09-28T00:37:47.539Z,1014.43
2017-09-28T00:38:47.523Z,1014.44
2017-09-28T00:39:47.508Z,1014.4
2017-09-28T00:40:47.495Z,1014.41
2017-09-28T00:41:47.484Z,1014.4
2017-09-28T00:42:47.466Z,1014.39
2017-09-28T00:43:47.452Z,1014.44
2017-09-28T00:44:47.439Z,1014.4
2017-09-28T00:45:47.426Z,1014.46
2017-09-28T00:46:47.412Z,1014.46
2017-09-28T00:47:47.398Z,1014.43
2017-09-28T00:48:47.384Z,1014.43
2017-09-28T00:49:47.370Z,1014.41
2017-09-28T00:50:47.356Z,1014.4
2017-09-28T00:51:47.342Z,1014.38
2017-09-28T00:52:47.332Z,1014.41
2017-09-28T00:53:47.318Z,1014.37
2017-09-28T00:54:47.301Z,1014.38
2017-09-28T00:55:47.287Z,1014.43
2017-09-28T00:56:47.273Z,1014.36
2017-09-28T00:57:47.262Z,1014.37
2017-09-28T00:58:47.245Z,1014.36
2017-09-28T00:59:47.237Z,1014.34
2017-09-28T01:00:47.218Z,1014.34
2017-09-28T01:01:47.206Z,1014.29
2017-09-28T01:02:47.194Z,1014.31
2017-09-28T01:03:47.176Z,1014.3
2017-09-28T01:04:47.162Z,1014.29
2017-09-28T01:05:47.185Z,1014.31
2017-09-28T01:06:47.136Z,1014.26
2017-09-28T01:07:47.121Z,1014.28
2017-09-28T01:08:47.106Z,1014.27
2017-09-28T01:09:47.093Z,1014.26
2017-09-28T01:10:47.079Z,1014.26
2017-09-28T01:11:47.065Z,1014.22
2017-09-28T01:12:47.050Z,1014.26
2017-09-28T01:13:47.037Z,1014.29
2017-09-28T01:14:47.025Z,1014.26
2017-09-28T01:15:47.008Z,1014.29
2017-09-28T01:16:46.996Z,1014.23
2017-09-28T01:17:46.983Z,1014.23
2017-09-28T01:18:46.973Z,1014.25
2017-09-28T01:19:46.958Z,1014.29
2017-09-28T01:20:46.941Z,1014.24
2017-09-28T01:21:46.927Z,1014.25
2017-09-28T01:22:46.912Z,1014.23
2017-09-28T01:23:46.899Z,1014.28
2017-09-28T01:24:46.893Z,1014.27
2017-09-28T01:25:46.872Z,1014.25
2017-09-28T01:26:46.863Z,1014.26
2017-09-28T01:27:46.842Z,1014.23
2017-09-28T01:28:46.830Z,1014.27
2017-09-28T01:29:46.818Z,1014.23
2017-09-28T01:30:46.802Z,1014.21
2017-09-28T01:31:46.790Z,1014.18
2017-09-28T01:32:46.778Z,1014.2
2017-09-28T01:33:46.760Z,1014.18
2017-09-28T01:34:46.746Z,1014.16
2017-09-28T01:35:46.736Z,1014.21
2017-09-28T01:36:46.719Z,1014.2
2017-09-28T01:37:46.706Z,1014.2
2017-09-28T01:38:46.716Z,1014.17
2017-09-28T01:39:46.679Z,1014.19
2017-09-28T01:40:46.664Z,1014.2
2017-09-28T01:41:46.651Z,1014.26
2017-09-28T01:42:46.643Z,1014.18
2017-09-28T01:43:46.626Z,1014.18
2017-09-28T01:44:46.609Z,1014.19
2017-09-28T01:45:46.596Z,1014.17
2017-09-28T01:46:46.586Z,1014.13
2017-09-28T01:47:46.567Z,1014.16
2017-09-28T01:48:46.555Z,1014.15
2017-09-28T01:49:46.541Z,1014.12
2017-09-28T01:50:46.530Z,1014.13
2017-09-28T01:51:46.516Z,1014.09
2017-09-28T01:52:46.499Z,1014.07
2017-09-28T01:53:46.486Z,1014.09
2017-09-28T01:54:46.474Z,1014.09
2017-09-28T01:55:46.457Z,1014.05
2017-09-28T01:56:46.446Z,1014.01
2017-09-28T01:57:46.434Z,1014.05
2017-09-28T01:58:46.417Z,1014.03
2017-09-28T01:59:46.454Z,1014.07
2017-09-28T02:00:46.390Z,1014.08
2017-09-28T02:01:46.579Z,1014.09
2017-09-28T02:02:46.363Z,1014.09
2017-09-28T02:03:46.349Z,1014.08
2017-09-28T02:04:46.335Z,1014.12
2017-09-28T02:05:46.321Z,1014.1
2017-09-28T02:06:46.307Z,1014.07
2017-09-28T02:07:46.293Z,1014.03
2017-09-28T02:08:46.278Z,1014.02
2017-09-28T02:09:46.266Z,1014.06
2017-09-28T02:10:46.253Z,1014.04
2017-09-28T02:11:46.264Z,1014.07
2017-09-28T02:12:46.224Z,1014.01
2017-09-28T02:13:46.209Z,1013.99
2017-09-28T02:14:46.197Z,1013.99
2017-09-28T02:15:46.183Z,1014.03
2017-09-28T02:16:46.168Z,1014.03
2017-09-28T02:17:46.158Z,1013.98
2017-09-28T02:18:46.143Z,1013.98
2017-09-28T02:19:46.127Z,1013.97
2017-09-28T02:20:46.116Z,1013.99
2017-09-28T02:21:46.099Z,1013.99
2017-09-28T02:22:46.086Z,1013.98
2017-09-28T02:23:46.073Z,1013.98
2017-09-28T02:24:46.057Z,1013.96
2017-09-28T02:25:46.047Z,1013.99
2017-09-28T02:26:46.032Z,1013.97
2017-09-28T02:27:46.019Z,1013.96
2017-09-28T02:28:46.002Z,1014.01
2017-09-28T02:29:45.990Z,1013.98
2017-09-28T02:30:45.977Z,1014.03
2017-09-28T02:31:45.964Z,1014.04
2017-09-28T02:32:45.948Z,1014.08
2017-09-28T02:33:45.934Z,1014.06
2017-09-28T02:34:45.921Z,1014.07
2017-09-28T02:35:45.907Z,1014.06
2017-09-28T02:36:45.892Z,1014.06
2017-09-28T02:37:45.879Z,1014.08
2017-09-28T02:38:45.867Z,1014.1
2017-09-28T02:39:45.853Z,1014.11
2017-09-28T02:40:45.839Z,1014.12
2017-09-28T02:41:45.825Z,1014.16
2017-09-28T02:42:45.810Z,1014.12
2017-09-28T02:43:45.796Z,1014.14
2017-09-28T02:44:45.784Z,1014.17
2017-09-28T02:45:45.772Z,1014.19
2017-09-28T02:46:45.755Z,1014.19
2017-09-28T02:47:45.742Z,1014.19
2017-09-28T02:48:45.728Z,1014.15
2017-09-28T02:49:45.716Z,1014.17
2017-09-28T02:50:45.701Z,1014.15
2017-09-28T02:51:45.686Z,1014.12
2017-09-28T02:52:45.674Z,1014.12
2017-09-28T02:53:45.663Z,1014.12
2017-09-28T02:54:45.647Z,1014.12
2017-09-28T02:55:45.632Z,1014.08
2017-09-28T02:56:45.619Z,1014.11
2017-09-28T02:57:45.604Z,1014.14
2017-09-28T02:58:45.590Z,1014.14
2017-09-28T02:59:45.578Z,1014.13
2017-09-28T03:00:45.572Z,1014.17
2017-09-28T03:01:45.553Z,1014.17
2017-09-28T03:02:45.537Z,1014.18
2017-09-28T03:03:45.521Z,1014.17
2017-09-28T03:04:45.517Z,1014.13
2017-09-28T03:05:45.494Z,1014.16
2017-09-28T03:06:45.481Z,1014.18
2017-09-28T03:07:45.469Z,1014.21
2017-09-28T03:08:45.469Z,1014.22
2017-09-28T03:09:45.446Z,1014.14
2017-09-28T03:10:45.426Z,1014.17
2017-09-28T03:11:45.413Z,1014.17
2017-09-28T03:12:45.402Z,1014.16
2017-09-28T03:13:45.385Z,1014.13
2017-09-28T03:14:45.372Z,1014.15
2017-09-28T03:15:45.359Z,1014.15
2017-09-28T03:16:45.347Z,1014.16
2017-09-28T03:17:45.332Z,1014.17
2017-09-28T03:18:45.317Z,1014.16
2017-09-28T03:19:45.304Z,1014.19
2017-09-28T03:20:45.291Z,1014.23
2017-09-28T03:21:45.279Z,1014.21
2017-09-28T03:22:45.264Z,1014.26
2017-09-28T03:23:45.249Z,1014.25
2017-09-28T03:24:45.236Z,1014.21
2017-09-28T03:25:45.221Z,1014.23
2017-09-28T03:26:45.209Z,1014.19
2017-09-28T03:27:45.194Z,1014.17
2017-09-28T03:28:45.181Z,1014.15
2017-09-28T03:29:45.170Z,1014.16
2017-09-28T03:30:45.153Z,1014.16
2017-09-28T03:31:45.141Z,1014.13
2017-09-28T03:32:45.127Z,1014.08
2017-09-28T03:33:45.114Z,1014.11
2017-09-28T03:34:45.098Z,1014.09
2017-09-28T03:35:45.087Z,1014.1
2017-09-28T03:36:45.071Z,1014.07
2017-09-28T03:37:45.059Z,1014.03
2017-09-28T03:38:45.045Z,1014.03
2017-09-28T03:39:45.031Z,1014.04
2017-09-28T03:40:45.019Z,1014.05
2017-09-28T03:41:45.003Z,1014.02
2017-09-28T03:42:44.991Z,1014
2017-09-28T03:43:44.979Z,1013.98
2017-09-28T03:44:44.965Z,1013.94
2017-09-28T03:45:44.949Z,1013.97
2017-09-28T03:46:44.936Z,1013.98
2017-09-28T03:47:44.924Z,1013.98
2017-09-28T03:48:44.909Z,1013.98
2017-09-28T03:49:44.903Z,1014.02
2017-09-28T03:50:44.882Z,1014.02
2017-09-28T03:51:44.868Z,1014
2017-09-28T03:52:44.854Z,1014
2017-09-28T03:53:44.841Z,1014
2017-09-28T03:54:44.829Z,1013.98
2017-09-28T03:55:44.814Z,1014.03
2017-09-28T03:56:44.799Z,1014.03
2017-09-28T03:57:44.787Z,1014.01
2017-09-28T03:58:44.773Z,1014.01
2017-09-28T03:59:44.764Z,1014.04
2017-09-28T04:00:44.744Z,1014.1
2017-09-28T04:01:44.934Z,1014.07
2017-09-28T04:02:44.721Z,1014.04
2017-09-28T04:03:44.704Z,1014.05
2017-09-28T04:04:44.692Z,1014.09
2017-09-28T04:05:44.677Z,1014.08
2017-09-28T04:06:44.665Z,1014.05
2017-09-28T04:07:44.650Z,1014.09
2017-09-28T04:08:44.642Z,1014.06
2017-09-28T04:09:44.631Z,1014.03
2017-09-28T04:10:44.609Z,1014.05
2017-09-28T04:11:44.597Z,1014.07
2017-09-28T04:12:44.583Z,1014.09
2017-09-28T04:13:44.569Z,1014.06
2017-09-28T04:14:44.555Z,1014.08
2017-09-28T04:15:44.551Z,1014.06
2017-09-28T04:16:44.529Z,1014.03
2017-09-28T04:17:44.515Z,1013.99
2017-09-28T04:18:44.502Z,1014.04
2017-09-28T04:19:44.487Z,1014
2017-09-28T04:20:44.474Z,1014.02
2017-09-28T04:21:44.460Z,1014.02
2017-09-28T04:22:44.448Z,1014
2017-09-28T04:23:44.433Z,1014.01
2017-09-28T04:24:44.421Z,1014
2017-09-28T04:25:44.411Z,1014.01
2017-09-28T04:26:44.394Z,1014.05
2017-09-28T04:27:44.380Z,1014
2017-09-28T04:28:44.367Z,1014.07
2017-09-28T04:29:44.352Z,1014.01
2017-09-28T04:30:44.341Z,1014
2017-09-28T04:31:44.326Z,1014.06
2017-09-28T04:32:44.319Z,1014.02
2017-09-28T04:33:44.299Z,1014.01
2017-09-28T04:34:44.286Z,1014.02
2017-09-28T04:35:44.274Z,1014.01
2017-09-28T04:36:44.259Z,1014
2017-09-28T04:37:44.246Z,1013.99
2017-09-28T04:38:44.231Z,1014.01
2017-09-28T04:39:44.220Z,1013.96
2017-09-28T04:40:44.208Z,1013.95
2017-09-28T04:41:44.191Z,1013.92
2017-09-28T04:42:44.179Z,1013.88
2017-09-28T04:43:44.165Z,1013.88
2017-09-28T04:44:44.150Z,1013.86
2017-09-28T04:45:44.138Z,1013.86
2017-09-28T04:46:44.124Z,1013.81
2017-09-28T04:47:44.111Z,1013.84
2017-09-28T04:48:44.099Z,1013.87
2017-09-28T04:49:44.115Z,1013.81
2017-09-28T04:50:44.071Z,1013.83
2017-09-28T04:51:44.060Z,1013.8
2017-09-28T04:52:44.045Z,1013.83
2017-09-28T04:53:44.032Z,1013.85
2017-09-28T04:54:44.017Z,1013.83
2017-09-28T04:55:44.005Z,1013.85
2017-09-28T04:56:43.991Z,1013.86
2017-09-28T04:57:43.978Z,1013.87
2017-09-28T04:58:43.966Z,1013.89
2017-09-28T04:59:43.951Z,1013.89
2017-09-28T05:00:43.938Z,1013.88
2017-09-28T05:01:43.924Z,1013.89
2017-09-28T05:02:43.927Z,1013.89
2017-09-28T05:03:43.901Z,1013.91
2017-09-28T05:04:43.898Z,1013.88
2017-09-28T05:05:43.870Z,1013.9
2017-09-28T05:06:43.858Z,1013.87
2017-09-28T05:07:43.846Z,1013.92
2017-09-28T05:08:43.835Z,1013.91
2017-09-28T05:09:43.819Z,1013.9
2017-09-28T05:10:43.804Z,1013.92
2017-09-28T05:11:43.792Z,1013.9
2017-09-28T05:12:43.776Z,1013.91
2017-09-28T05:13:43.765Z,1013.88
2017-09-28T05:14:43.752Z,1013.93
2017-09-28T05:15:43.738Z,1013.85
2017-09-28T05:16:43.728Z,1013.87
2017-09-28T05:17:43.711Z,1013.84
2017-09-28T05:18:43.700Z,1013.85
2017-09-28T05:19:43.688Z,1013.83
2017-09-28T05:20:43.675Z,1013.8
2017-09-28T05:21:43.661Z,1013.78
2017-09-28T05:22:43.644Z,1013.81
2017-09-28T05:23:43.633Z,1013.8
2017-09-28T05:24:43.620Z,1013.79
2017-09-28T05:25:43.605Z,1013.84
2017-09-28T05:26:43.592Z,1013.79
2017-09-28T05:27:43.580Z,1013.83
2017-09-28T05:28:43.565Z,1013.83
2017-09-28T05:29:43.551Z,1013.83
2017-09-28T05:30:43.540Z,1013.82
2017-09-28T05:31:43.526Z,1013.83
2017-09-28T05:32:43.513Z,1013.82
2017-09-28T05:33:43.500Z,1013.89
2017-09-28T05:34:43.486Z,1013.83
2017-09-28T05:35:43.473Z,1013.84
2017-09-28T05:36:43.462Z,1013.84
2017-09-28T05:37:43.447Z,1013.84
2017-09-28T05:38:43.433Z,1013.82
2017-09-28T05:39:43.420Z,1013.85
2017-09-28T05:40:43.406Z,1013.83
2017-09-28T05:41:43.394Z,1013.88
2017-09-28T05:42:43.381Z,1013.86
2017-09-28T05:43:43.367Z,1013.86
2017-09-28T05:44:43.355Z,1013.84
2017-09-28T05:45:43.341Z,1013.85
2017-09-28T05:46:43.328Z,1013.84
2017-09-28T05:47:43.316Z,1013.83
2017-09-28T05:48:43.303Z,1013.86
2017-09-28T05:49:43.291Z,1013.84
2017-09-28T05:50:43.277Z,1013.86
2017-09-28T05:51:43.261Z,1013.85
2017-09-28T05:52:43.250Z,1013.85
2017-09-28T05:53:43.234Z,1013.9
2017-09-28T05:54:43.225Z,1013.89
2017-09-28T05:55:43.209Z,1013.88
2017-09-28T05:56:43.197Z,1013.88
2017-09-28T05:57:43.185Z,1013.89
2017-09-28T05:58:43.169Z,1013.86
2017-09-28T05:59:43.158Z,1013.87
2017-09-28T06:00:43.150Z,1013.87
2017-09-28T06:01:43.334Z,1013.86
2017-09-28T06:02:43.119Z,1013.82
2017-09-28T06:03:43.106Z,1013.84
2017-09-28T06:04:43.090Z,1013.81
2017-09-28T06:05:43.078Z,1013.82
2017-09-28T06:06:43.065Z,1013.76
2017-09-28T06:07:43.052Z,1013.76
2017-09-28T06:08:43.041Z,1013.8
2017-09-28T06:09:43.026Z,1013.8
2017-09-28T06:10:43.014Z,1013.82
2017-09-28T06:11:43.001Z,1013.85
2017-09-28T06:12:42.985Z,1013.84
2017-09-28T06:13:42.975Z,1013.84
2017-09-28T06:14:42.961Z,1013.89
2017-09-28T06:15:42.949Z,1013.84
2017-09-28T06:16:42.933Z,1013.89
2017-09-28T06:17:42.922Z,1013.94
2017-09-28T06:18:42.909Z,1013.93
2017-09-28T06:19:42.894Z,1013.95
2017-09-28T06:20:42.881Z,1013.96
2017-09-28T06:21:42.869Z,1013.96
2017-09-28T06:22:42.854Z,1013.97
2017-09-28T06:23:42.845Z,1014
2017-09-28T06:24:42.832Z,1013.98
2017-09-28T06:25:42.818Z,1013.98
2017-09-28T06:26:42.806Z,1014.01
2017-09-28T06:27:42.796Z,1014
2017-09-28T06:28:42.782Z,1013.99
2017-09-28T06:29:42.765Z,1014.03
2017-09-28T06:30:42.755Z,1014.05
2017-09-28T06:31:42.742Z,1014.07
2017-09-28T06:32:42.729Z,1014.03
2017-09-28T06:33:42.718Z,1014.07
2017-09-28T06:34:42.703Z,1014.03
2017-09-28T06:35:42.692Z,1014.06
2017-09-28T06:36:42.679Z,1014.04
2017-09-28T06:37:42.664Z,1014.06
2017-09-28T06:38:42.654Z,1014.06
2017-09-28T06:39:42.639Z,1014.06
2017-09-28T06:40:42.627Z,1014.08
2017-09-28T06:41:42.613Z,1014.12
2017-09-28T06:42:42.601Z,1014.1
2017-09-28T06:43:42.591Z,1014.09
2017-09-28T06:44:42.577Z,1014.13
2017-09-28T06:45:42.561Z,1014.16
2017-09-28T06:46:42.550Z,1014.15
2017-09-28T06:47:42.540Z,1014.14
2017-09-28T06:48:42.524Z,1014.12
2017-09-28T06:49:42.512Z,1014.12
2017-09-28T06:50:42.499Z,1014.14
2017-09-28T06:51:42.485Z,1014.14
2017-09-28T06:52:42.475Z,1014.13
2017-09-28T06:53:42.460Z,1014.15
2017-09-28T06:54:42.447Z,1014.18
2017-09-28T06:55:42.437Z,1014.16
2017-09-28T06:56:42.424Z,1014.15
2017-09-28T06:57:42.410Z,1014.21
2017-09-28T06:58:42.399Z,1014.2
2017-09-28T06:59:42.384Z,1014.21
2017-09-28T07:00:42.374Z,1014.24
2017-09-28T07:01:42.360Z,1014.21
2017-09-28T07:02:42.348Z,1014.24
2017-09-28T07:03:42.334Z,1014.22
2017-09-28T07:04:42.321Z,1014.22
2017-09-28T07:05:42.309Z,1014.19
2017-09-28T07:06:42.296Z,1014.21
2017-09-28T07:07:42.286Z,1014.23
2017-09-28T07:08:42.272Z,1014.2
2017-09-28T07:09:42.261Z,1014.23
2017-09-28T07:10:42.246Z,1014.22
2017-09-28T07:11:42.234Z,1014.27
2017-09-28T07:12:42.224Z,1014.24
2017-09-28T07:13:42.210Z,1014.24
2017-09-28T07:14:42.203Z,1014.23
2017-09-28T07:15:42.186Z,1014.23
2017-09-28T07:16:42.174Z,1014.23
2017-09-28T07:17:42.161Z,1014.19
2017-09-28T07:18:42.149Z,1014.24
2017-09-28T07:19:42.140Z,1014.23
2017-09-28T07:20:42.124Z,1014.26
2017-09-28T07:21:42.116Z,1014.25
2017-09-28T07:22:42.103Z,1014.27
2017-09-28T07:23:42.088Z,1014.26
2017-09-28T07:24:42.075Z,1014.23
2017-09-28T07:25:42.061Z,1014.27
2017-09-28T07:26:42.050Z,1014.27
2017-09-28T07:27:42.041Z,1014.27
2017-09-28T07:28:42.026Z,1014.23
2017-09-28T07:29:42.014Z,1014.23
2017-09-28T07:30:42.008Z,1014.24
2017-09-28T07:31:42.000Z,1014.29
2017-09-28T07:32:41.977Z,1014.26
2017-09-28T07:33:41.966Z,1014.28
2017-09-28T07:34:41.955Z,1014.25
2017-09-28T07:35:41.941Z,1014.28
2017-09-28T07:36:41.932Z,1014.24
2017-09-28T07:37:41.919Z,1014.27
2017-09-28T07:38:41.906Z,1014.27
2017-09-28T07:39:41.893Z,1014.29
2017-09-28T07:40:41.881Z,1014.29
2017-09-28T07:41:41.870Z,1014.27
2017-09-28T07:42:41.859Z,1014.28
2017-09-28T07:43:41.845Z,1014.31
2017-09-28T07:44:41.835Z,1014.27
2017-09-28T07:45:41.824Z,1014.33
2017-09-28T07:46:41.810Z,1014.28
2017-09-28T07:47:41.800Z,1014.31
2017-09-28T07:48:41.788Z,1014.31
2017-09-28T07:49:41.777Z,1014.33
2017-09-28T07:50:41.764Z,1014.32
2017-09-28T07:51:41.753Z,1014.32
2017-09-28T07:52:41.741Z,1014.33
2017-09-28T07:53:41.729Z,1014.34
2017-09-28T07:54:41.719Z,1014.37
2017-09-28T07:55:41.708Z,1014.36
2017-09-28T07:56:41.694Z,1014.33
2017-09-28T07:57:41.683Z,1014.36
2017-09-28T07:58:41.673Z,1014.43
2017-09-28T07:59:41.660Z,1014.45
2017-09-28T08:00:41.652Z,1014.52
2017-09-28T08:01:41.844Z,1014.49
2017-09-28T08:02:41.627Z,1014.48
2017-09-28T08:03:41.617Z,1014.47
2017-09-28T08:04:41.604Z,1014.5
2017-09-28T08:05:41.597Z,1014.49
2017-09-28T08:06:41.580Z,1014.48
2017-09-28T08:07:41.571Z,1014.47
2017-09-28T08:08:41.560Z,1014.49
2017-09-28T08:09:41.545Z,1014.46
2017-09-28T08:10:41.534Z,1014.47
2017-09-28T08:11:41.521Z,1014.53
2017-09-28T08:12:41.517Z,1014.53
2017-09-28T08:13:41.498Z,1014.52
2017-09-28T08:14:41.489Z,1014.52
2017-09-28T08:15:41.476Z,1014.51
2017-09-28T08:16:41.464Z,1014.54
2017-09-28T08:17:41.454Z,1014.53
2017-09-28T08:18:41.444Z,1014.5
2017-09-28T08:19:41.431Z,1014.46
2017-09-28T08:20:41.419Z,1014.5
2017-09-28T08:21:41.409Z,1014.48
2017-09-28T08:22:41.397Z,1014.44
2017-09-28T08:23:41.386Z,1014.46
2017-09-28T08:24:41.375Z,1014.47
2017-09-28T08:25:41.365Z,1014.51
2017-09-28T08:26:41.352Z,1014.47
2017-09-28T08:27:41.340Z,1014.47
2017-09-28T08:28:41.330Z,1014.46
2017-09-28T08:29:41.320Z,1014.44
2017-09-28T08:30:41.307Z,1014.46
2017-09-28T08:31:41.297Z,1014.43
2017-09-28T08:32:41.289Z,1014.42
2017-09-28T08:33:41.273Z,1014.44
2017-09-28T08:34:41.263Z,1014.43
2017-09-28T08:35:41.252Z,1014.45
2017-09-28T08:36:41.243Z,1014.48
2017-09-28T08:37:41.230Z,1014.49
2017-09-28T08:38:41.218Z,1014.47
2017-09-28T08:39:41.209Z,1014.46
2017-09-28T08:40:41.200Z,1014.49
2017-09-28T08:41:41.189Z,1014.5
2017-09-28T08:42:41.177Z,1014.49
2017-09-28T08:43:41.165Z,1014.48
2017-09-28T08:44:41.158Z,1014.5
2017-09-28T08:45:41.145Z,1014.47
2017-09-28T08:46:41.134Z,1014.51
2017-09-28T08:47:41.123Z,1014.44
2017-09-28T08:48:41.118Z,1014.45
2017-09-28T08:49:41.107Z,1014.45
2017-09-28T08:50:41.092Z,1014.43
2017-09-28T08:51:41.084Z,1014.42
2017-09-28T08:52:41.071Z,1014.45
2017-09-28T08:53:41.062Z,1014.41
2017-09-28T08:54:41.050Z,1014.44
2017-09-28T08:55:41.041Z,1014.41
2017-09-28T08:56:41.031Z,1014.42
2017-09-28T08:57:41.022Z,1014.42
2017-09-28T08:58:41.010Z,1014.36
2017-09-28T08:59:40.999Z,1014.4
2017-09-28T09:00:40.993Z,1014.41
2017-09-28T09:01:40.981Z,1014.42
2017-09-28T09:02:40.973Z,1014.4
2017-09-28T09:03:40.961Z,1014.4
2017-09-28T09:04:40.952Z,1014.4
2017-09-28T09:05:40.944Z,1014.36
2017-09-28T09:06:40.933Z,1014.35
2017-09-28T09:07:40.922Z,1014.34
2017-09-28T09:08:40.914Z,1014.37
2017-09-28T09:09:40.905Z,1014.36
2017-09-28T09:10:40.893Z,1014.33
2017-09-28T09:11:40.884Z,1014.34
2017-09-28T09:12:40.876Z,1014.31
2017-09-28T09:13:40.866Z,1014.35
2017-09-28T09:14:40.856Z,1014.34
2017-09-28T09:15:40.845Z,1014.31
2017-09-28T09:16:40.839Z,1014.34
2017-09-28T09:17:40.826Z,1014.35
2017-09-28T09:18:40.822Z,1014.32
2017-09-28T09:19:40.809Z,1014.3
2017-09-28T09:20:40.802Z,1014.33
2017-09-28T09:21:40.790Z,1014.32
2017-09-28T09:22:40.780Z,1014.38
2017-09-28T09:23:40.771Z,1014.36
2017-09-28T09:24:40.765Z,1014.38
2017-09-28T09:25:40.756Z,1014.38
2017-09-28T09:26:40.748Z,1014.35
2017-09-28T09:27:40.736Z,1014.33
2017-09-28T09:28:40.726Z,1014.34
2017-09-28T09:29:40.719Z,1014.34
2017-09-28T09:30:40.710Z,1014.35
2017-09-28T09:31:40.703Z,1014.32
2017-09-28T09:32:40.693Z,1014.34
2017-09-28T09:33:40.684Z,1014.36
2017-09-28T09:34:40.674Z,1014.4
2017-09-28T09:35:40.669Z,1014.44
2017-09-28T09:36:40.657Z,1014.39
2017-09-28T09:37:40.651Z,1014.46
2017-09-28T09:38:40.640Z,1014.46
2017-09-28T09:39:40.629Z,1014.48
2017-09-28T09:40:40.621Z,1014.45
2017-09-28T09:41:40.611Z,1014.46
2017-09-28T09:42:40.604Z,1014.44
2017-09-28T09:43:40.594Z,1014.45
2017-09-28T09:44:40.585Z,1014.45
2017-09-28T09:45:40.577Z,1014.42
2017-09-28T09:46:40.568Z,1014.37
2017-09-28T09:47:40.558Z,1014.37
2017-09-28T09:48:40.550Z,1014.36
2017-09-28T09:49:40.545Z,1014.3
2017-09-28T09:50:40.531Z,1014.33
2017-09-28T09:51:40.524Z,1014.27
2017-09-28T09:52:40.517Z,1014.29
2017-09-28T09:53:40.508Z,1014.32
2017-09-28T09:54:40.497Z,1014.28
2017-09-28T09:55:40.490Z,1014.33
2017-09-28T09:56:40.480Z,1014.34
2017-09-28T09:57:40.469Z,1014.37
2017-09-28T09:58:40.460Z,1014.36
2017-09-28T09:59:40.453Z,1014.38
2017-09-28T10:00:40.445Z,1014.42
2017-09-28T10:01:40.435Z,1014.38
2017-09-28T10:02:40.425Z,1014.43
2017-09-28T10:03:40.420Z,1014.44
2017-09-28T10:04:40.414Z,1014.45
2017-09-28T10:05:40.400Z,1014.45
2017-09-28T10:06:40.396Z,1014.44
2017-09-28T10:07:40.383Z,1014.47
2017-09-28T10:08:40.377Z,1014.45
2017-09-28T10:09:40.366Z,1014.44
2017-09-28T10:10:40.358Z,1014.42
2017-09-28T10:11:40.348Z,1014.43
2017-09-28T10:12:40.339Z,1014.44
2017-09-28T10:13:40.335Z,1014.48
2017-09-28T10:14:40.323Z,1014.44
2017-09-28T10:15:40.317Z,1014.49
2017-09-28T10:16:40.306Z,1014.46
2017-09-28T10:17:40.297Z,1014.5
2017-09-28T10:18:40.291Z,1014.47
2017-09-28T10:19:40.279Z,1014.47
2017-09-28T10:20:40.271Z,1014.48
2017-09-28T10:21:40.265Z,1014.48
2017-09-28T10:22:40.255Z,1014.42
2017-09-28T10:23:40.246Z,1014.45
2017-09-28T10:24:40.238Z,1014.47
2017-09-28T10:25:40.229Z,1014.51
2017-09-28T10:26:40.222Z,1014.49
2017-09-28T10:27:40.211Z,1014.52
2017-09-28T10:28:40.202Z,1014.52
2017-09-28T10:29:40.197Z,1014.52
2017-09-28T10:30:40.186Z,1014.53
2017-09-28T10:31:40.178Z,1014.49
2017-09-28T10:32:40.168Z,1014.55
2017-09-28T10:33:40.160Z,1014.52
2017-09-28T10:34:40.150Z,1014.51
2017-09-28T10:35:40.145Z,1014.53
2017-09-28T10:36:40.135Z,1014.51
2017-09-28T10:37:40.128Z,1014.51
2017-09-28T10:38:40.122Z,1014.5
2017-09-28T10:39:40.111Z,1014.46
2017-09-28T10:40:40.106Z,1014.52
2017-09-28T10:41:40.091Z,1014.48
2017-09-28T10:42:40.084Z,1014.52
2017-09-28T10:43:40.077Z,1014.54
2017-09-28T10:44:40.069Z,1014.53
2017-09-28T10:45:40.096Z,1014.55
2017-09-28T10:46:40.053Z,1014.52
2017-09-28T10:47:40.043Z,1014.56
2017-09-28T10:48:40.036Z,1014.55
2017-09-28T10:49:40.029Z,1014.59
2017-09-28T10:50:40.018Z,1014.56
2017-09-28T10:51:40.010Z,1014.54
2017-09-28T10:52:40.004Z,1014.56
2017-09-28T10:53:39.994Z,1014.57
2017-09-28T10:54:39.988Z,1014.56
2017-09-28T10:55:39.979Z,1014.57
2017-09-28T10:56:39.968Z,1014.57
2017-09-28T10:57:39.962Z,1014.59
2017-09-28T10:58:39.953Z,1014.61
2017-09-28T10:59:39.946Z,1014.61
2017-09-28T11:00:39.938Z,1014.63
2017-09-28T11:01:39.930Z,1014.67
2017-09-28T11:02:39.922Z,1014.64
2017-09-28T11:03:39.912Z,1014.65
2017-09-28T11:04:39.904Z,1014.68
2017-09-28T11:05:39.897Z,1014.67
2017-09-28T11:06:39.890Z,1014.64
2017-09-28T11:07:39.881Z,1014.63
2017-09-28T11:08:39.874Z,1014.66
2017-09-28T11:09:39.866Z,1014.63
2017-09-28T11:10:39.860Z,1014.64
2017-09-28T11:11:39.850Z,1014.63
2017-09-28T11:12:39.845Z,1014.59
2017-09-28T11:13:39.836Z,1014.6
2017-09-28T11:14:39.826Z,1014.6
2017-09-28T11:15:39.821Z,1014.6
2017-09-28T11:16:39.814Z,1014.6
2017-09-28T11:17:39.814Z,1014.59
2017-09-28T11:18:39.797Z,1014.61
2017-09-28T11:19:39.791Z,1014.62
2017-09-28T11:20:39.784Z,1014.61
2017-09-28T11:21:39.778Z,1014.6
2017-09-28T11:22:39.768Z,1014.58
2017-09-28T11:23:39.761Z,1014.54
2017-09-28T11:24:39.755Z,1014.53
2017-09-28T11:25:39.746Z,1014.52
2017-09-28T11:26:39.739Z,1014.5
2017-09-28T11:27:39.733Z,1014.46
2017-09-28T11:28:39.732Z,1014.43
2017-09-28T11:29:39.721Z,1014.41
2017-09-28T11:30:39.711Z,1014.42
2017-09-28T11:31:39.703Z,1014.38
2017-09-28T11:32:39.701Z,1014.42
2017-09-28T11:33:39.690Z,1014.38
2017-09-28T11:34:39.684Z,1014.36
2017-09-28T11:35:39.676Z,1014.32
2017-09-28T11:36:39.675Z,1014.29
2017-09-28T11:37:39.666Z,1014.32
2017-09-28T11:38:39.658Z,1014.3
2017-09-28T11:39:39.650Z,1014.3
2017-09-28T11:40:39.643Z,1014.29
2017-09-28T11:41:39.638Z,1014.28
2017-09-28T11:42:39.629Z,1014.31
2017-09-28T11:43:39.622Z,1014.34
2017-09-28T11:44:39.616Z,1014.31
2017-09-28T11:45:39.611Z,1014.29
2017-09-28T11:46:39.602Z,1014.29
2017-09-28T11:47:39.611Z,1014.27
2017-09-28T11:48:39.590Z,1014.29
2017-09-28T11:49:39.582Z,1014.29
2017-09-28T11:50:39.575Z,1014.26
2017-09-28T11:51:39.567Z,1014.28
2017-09-28T11:52:39.563Z,1014.28
2017-09-28T11:53:39.554Z,1014.31
2017-09-28T11:54:39.545Z,1014.3
2017-09-28T11:55:39.540Z,1014.25
2017-09-28T11:56:39.532Z,1014.26
2017-09-28T11:57:39.525Z,1014.25
2017-09-28T11:58:39.517Z,1014.25
2017-09-28T11:59:39.509Z,1014.25
2017-09-28T12:00:39.502Z,1014.27
2017-09-28T12:01:39.496Z,1014.26
2017-09-28T12:02:39.692Z,1014.29
2017-09-28T12:03:39.481Z,1014.28
2017-09-28T12:04:39.473Z,1014.31
2017-09-28T12:05:39.467Z,1014.35
2017-09-28T12:06:39.457Z,1014.3
2017-09-28T12:07:39.451Z,1014.37
2017-09-28T12:08:39.442Z,1014.39